Time;durP1;ratioP1;P1;durP2;ratioP2;P2;SDS_P1;SDS_P2;PMS_P1;PMS_P2;Temp;Humidity;BMP_temperature;BMP_pressure;BME280_temperature;BME280_humidity;BME280_pressure;Samples;Min_cycle;Max_cycle;Signal;HPM_P1;HPM_P2
2022/09/07 00:00:04;;;;;;;8.20;1.50;;;;;;;-145.69;100.00;70576.69;5075185;28;20203;-76
2022/09/07 00:02:31;;;;;;;10.48;2.15;;;;;;;-145.69;100.00;70598.56;5075040;28;20207;-76
2022/09/07 00:04:57;;;;;;;7.25;1.98;;;;;;;-145.69;100.00;70590.63;5075119;28;20202;-75
2022/09/07 00:07:24;;;;;;;6.30;1.50;;;;;;;-145.69;100.00;70598.56;5075039;28;20198;-76
2022/09/07 00:09:53;;;;;;;6.85;2.00;;;;;;;-145.69;100.00;70614.47;5074799;28;20227;-76
2022/09/07 00:12:20;;;;;;;8.55;2.08;;;;;;;-145.69;100.00;70626.41;5075210;28;20206;-76
2022/09/07 00:14:47;;;;;;;5.30;1.70;;;;;;;-145.69;100.00;70652.28;5074478;28;20449;-76
2022/09/07 00:17:16;;;;;;;5.10;1.85;;;;;;;-145.69;100.00;70674.16;5074686;28;20282;-76
2022/09/07 00:19:42;;;;;;;6.45;2.05;;;;;;;-145.69;100.00;70674.16;5074935;28;20194;-76
2022/09/07 00:22:08;;;;;;;5.13;1.63;;;;;;;-145.69;100.00;70670.19;5073862;28;20203;-76
2022/09/07 00:24:35;;;;;;;4.85;1.70;;;;;;;-145.69;100.00;70672.19;5074870;28;20203;-77
2022/09/07 00:27:01;;;;;;;5.20;1.50;;;;;;;-145.69;100.00;70668.19;5074602;28;20554;-76
2022/09/07 00:29:30;;;;;;;9.32;1.80;;;;;;;-145.69;100.00;70686.09;5074303;28;20693;-77
2022/09/07 00:31:57;;;;;;;3.20;1.63;;;;;;;-145.69;100.00;70688.09;5074555;28;20210;-76
2022/09/07 00:34:23;;;;;;;5.28;1.70;;;;;;;-145.69;100.00;70680.13;5074550;28;20210;-77
2022/09/07 00:36:50;;;;;;;7.97;2.40;;;;;;;-145.69;100.00;70672.19;5074103;28;20684;-77
2022/09/07 00:39:19;;;;;;;5.88;1.40;;;;;;;-145.69;100.00;70662.22;5074584;28;20203;-74
2022/09/07 00:41:47;;;;;;;6.93;1.85;;;;;;;-145.69;100.00;70674.16;5074528;28;20199;-76
2022/09/07 00:44:53;;;;;;;4.70;1.70;;;;;;;-145.69;100.00;70686.09;5074344;28;20199;-75
2022/09/07 00:47:34;;;;;;;2.30;1.48;;;;;;;-145.69;100.00;70676.16;5073824;28;20206;-75
2022/09/07 00:50:07;;;;;;;9.52;1.85;;;;;;;-145.69;100.00;70674.16;5074033;28;20274;-76
2022/09/07 00:52:37;;;;;;;7.00;1.70;;;;;;;-145.69;100.00;70680.13;5074100;28;20183;-76
2022/09/07 00:55:11;;;;;;;5.75;1.50;;;;;;;-145.69;100.00;70690.09;5074289;28;20209;-76
2022/09/07 00:57:41;;;;;;;4.72;1.58;;;;;;;-145.69;100.00;70680.13;5073685;28;20207;-76
2022/09/07 01:00:09;;;;;;;4.20;1.48;;;;;;;-145.69;100.00;70694.06;5073875;28;20261;-76
2022/09/07 01:02:37;;;;;;;7.90;1.95;;;;;;;-145.69;100.00;70706.00;5073483;28;20430;-75
2022/09/07 01:05:10;;;;;;;3.70;1.45;;;;;;;-145.69;100.00;70721.91;5074202;28;20207;-76
2022/09/07 01:07:37;;;;;;;2.15;1.30;;;;;;;-145.69;100.00;70723.91;5073654;28;20264;-75
2022/09/07 01:10:04;;;;;;;4.63;1.63;;;;;;;-145.69;100.00;70715.94;5073464;28;20226;-75
2022/09/07 01:12:31;;;;;;;4.38;1.45;;;;;;;-145.69;100.00;70713.97;5073885;28;20202;-75
2022/09/07 01:14:57;;;;;;;7.93;1.55;;;;;;;-145.69;100.00;70721.91;5073776;28;20198;-75
2022/09/07 01:17:32;;;;;;;5.70;1.40;;;;;;;-145.69;100.00;70725.91;5073315;28;20232;-77
2022/09/07 01:20:23;;;;;;;2.05;1.60;;;;;;;-145.69;100.00;70729.88;5073658;28;20657;-77
2022/09/07 01:23:32;;;;;;;5.32;1.80;;;;;;;-145.69;100.00;70717.94;5072798;28;20202;-76
2022/09/07 01:26:30;;;;;;;6.90;1.40;;;;;;;-145.69;100.00;70721.91;5073699;28;20206;-77
2022/09/07 01:29:03;;;;;;;5.53;1.70;;;;;;;-145.69;100.00;70717.94;5070403;28;20215;-77
2022/09/07 01:31:36;;;;;;;4.38;1.25;;;;;;;-145.69;100.00;70719.94;5071665;28;20191;-76
2022/09/07 01:34:11;;;;;;;6.43;1.60;;;;;;;-145.69;100.00;70713.97;5069797;28;20205;-75
2022/09/07 01:36:48;;;;;;;5.65;1.60;;;;;;;-145.69;100.00;70723.91;5056119;28;20257;-76
2022/09/07 01:39:15;;;;;;;8.63;2.08;;;;;;;-145.69;100.00;70723.91;5073733;28;20198;-76
2022/09/07 01:41:47;;;;;;;7.93;1.58;;;;;;;-145.69;100.00;70741.81;5073323;28;20203;-76
2022/09/07 01:44:20;;;;;;;5.13;1.60;;;;;;;-145.69;100.00;70739.81;5073264;28;20281;-76
2022/09/07 01:46:53;;;;;;;3.28;1.77;;;;;;;-145.69;100.00;70737.84;5073213;28;20191;-75
2022/09/07 01:49:24;;;;;;;5.65;1.70;;;;;;;-145.69;100.00;70708.00;5073091;28;20234;-76
2022/09/07 01:51:56;;;;;;;5.10;1.40;;;;;;;-145.69;100.00;70692.06;5073030;28;20195;-76
2022/09/07 01:54:30;;;;;;;5.57;1.83;;;;;;;-145.69;100.00;70652.28;5073294;28;20207;-76
2022/09/07 01:57:02;;;;;;;9.23;1.75;;;;;;;-145.69;100.00;70638.34;5073255;28;20194;-76
2022/09/07 01:59:35;;;;;;;4.53;1.40;;;;;;;-145.69;100.00;70638.34;5073307;28;20199;-76
2022/09/07 02:02:06;;;;;;;7.63;1.67;;;;;;;-145.69;100.00;70632.38;5072908;28;20195;-76
2022/09/07 02:04:38;;;;;;;4.53;1.63;;;;;;;-145.69;100.00;70666.22;5073215;28;20209;-77
2022/09/07 02:07:11;;;;;;;8.57;1.58;;;;;;;-145.69;100.00;70688.09;5073174;28;20206;-77
2022/09/07 02:09:41;;;;;;;6.63;1.55;;;;;;;-145.69;100.00;70704.00;5072874;28;20240;-76
2022/09/07 02:12:17;;;;;;;7.75;1.60;;;;;;;-145.69;100.00;70729.88;5073334;28;20248;-76
2022/09/07 02:14:50;;;;;;;8.27;1.70;;;;;;;-145.69;100.00;70741.81;5073193;28;20206;-76
2022/09/07 02:17:22;;;;;;;4.72;1.60;;;;;;;-145.69;100.00;70739.81;5071884;28;20503;-77
2022/09/07 02:19:51;;;;;;;5.60;1.70;;;;;;;-145.69;100.00;70765.69;5072604;28;20230;-76
2022/09/07 02:22:23;;;;;;;5.15;1.50;;;;;;;-145.69;100.00;70797.53;5072997;28;20202;-77
2022/09/07 02:24:53;;;;;;;5.20;1.77;;;;;;;-145.69;100.00;70819.41;5072991;28;20560;-76
2022/09/07 02:27:26;;;;;;;3.85;1.48;;;;;;;-145.69;100.00;70835.31;5072509;28;20191;-77
2022/09/07 02:29:54;;;;;;;9.63;1.63;;;;;;;-145.69;100.00;70845.28;5072760;28;20226;-77
2022/09/07 02:32:20;;;;;;;4.82;1.48;;;;;;;-145.69;100.00;70869.16;5072192;28;20198;-76
2022/09/07 02:34:47;;;;;;;6.13;1.77;;;;;;;-145.69;100.00;70885.06;5072665;28;20293;-77
2022/09/07 02:37:16;;;;;;;5.90;1.75;;;;;;;-145.69;100.00;70893.03;5072411;28;20199;-77
2022/09/07 02:39:42;;;;;;;11.32;1.65;;;;;;;-145.69;100.00;70897.00;5072804;28;20203;-76
2022/09/07 02:42:09;;;;;;;5.40;2.05;;;;;;;-145.69;100.00;70912.91;5072585;28;20199;-77
2022/09/07 02:44:39;;;;;;;7.90;2.20;;;;;;;-145.69;100.00;70924.84;5072918;28;20207;-78
2022/09/07 02:47:20;;;;;;;8.57;2.25;;;;;;;-145.69;100.00;70944.75;5076649;28;20729;-76
2022/09/07 02:50:22;;;;;;;5.30;1.95;;;;;;;-145.69;100.00;70946.75;5076232;28;20242;-76
2022/09/07 02:53:06;;;;;;;8.93;1.90;;;;;;;-145.69;100.00;70948.72;5076759;28;20209;-76
2022/09/07 02:55:43;;;;;;;7.50;2.05;;;;;;;-145.69;100.00;70960.66;5075247;28;20449;-76
2022/09/07 02:58:22;;;;;;;8.50;2.17;;;;;;;-145.69;100.00;70958.69;5076138;28;20198;-76
2022/09/07 03:00:56;;;;;;;4.28;1.80;;;;;;;-145.69;100.00;70962.66;5076416;28;20289;-76
2022/09/07 03:03:33;;;;;;;6.35;2.00;;;;;;;-145.69;100.00;70956.69;5076280;28;20241;-78
2022/09/07 03:06:02;;;;;;;5.90;1.90;;;;;;;-145.69;100.00;70976.59;5076175;28;20229;-77
2022/09/07 03:08:35;;;;;;;4.43;1.70;;;;;;;-145.69;100.00;70984.53;5075644;28;20205;-78
2022/09/07 03:11:04;;;;;;;9.82;2.00;;;;;;;-145.69;100.00;70990.50;5076288;28;20199;-78
2022/09/07 03:13:31;;;;;;;7.63;2.67;;;;;;;-145.69;100.00;70986.53;5076295;28;20225;-79
2022/09/07 03:15:58;;;;;;;8.95;2.20;;;;;;;-145.69;100.00;70996.47;5075801;28;20203;-78
2022/09/07 03:18:28;;;;;;;9.10;1.90;;;;;;;-145.69;100.00;71002.44;5076151;28;20206;-78
2022/09/07 03:20:55;;;;;;;9.57;2.13;;;;;;;-145.69;100.00;71004.44;5075753;28;20207;-78
2022/09/07 03:23:22;;;;;;;3.78;2.15;;;;;;;-145.69;100.00;71008.41;5076437;28;20214;-78
2022/09/07 03:25:48;;;;;;;5.00;2.35;;;;;;;-145.69;100.00;71000.47;5075818;28;20231;-77
2022/09/07 03:28:15;;;;;;;6.70;1.92;;;;;;;-145.69;100.00;70996.47;5075821;28;20198;-77
2022/09/07 03:30:43;;;;;;;7.80;2.10;;;;;;;-145.69;100.00;71000.47;5075624;28;20230;-78
2022/09/07 03:33:09;;;;;;;9.85;2.42;;;;;;;-145.69;100.00;71012.41;5058010;28;20195;-77
2022/09/07 03:35:37;;;;;;;8.40;2.40;;;;;;;-145.69;100.00;71028.31;5058549;28;20199;-77
2022/09/07 03:38:04;;;;;;;12.35;2.30;;;;;;;-145.69;100.00;71040.25;5075929;28;20198;-76
2022/09/07 03:40:30;;;;;;;10.90;2.15;;;;;;;-145.69;100.00;71048.22;5075640;28;20221;-77
2022/09/07 03:42:59;;;;;;;9.57;2.20;;;;;;;-145.69;100.00;71038.25;5075651;28;20198;-76
2022/09/07 03:45:26;;;;;;;9.82;2.60;;;;;;;-145.69;100.00;71052.19;5075096;28;20645;-76
2022/09/07 03:47:52;;;;;;;9.07;2.22;;;;;;;-145.69;100.00;71056.16;5075354;28;20205;-77
2022/09/07 03:50:19;;;;;;;12.57;2.50;;;;;;;-145.69;100.00;71076.06;5075302;28;20243;-76
2022/09/07 03:52:47;;;;;;;11.48;2.65;;;;;;;-145.69;100.00;71076.06;5075524;28;20231;-76
2022/09/07 03:55:13;;;;;;;7.80;2.85;;;;;;;-145.69;100.00;71076.06;5075452;28;20213;-76
2022/09/07 03:57:41;;;;;;;11.60;3.45;;;;;;;-145.69;100.00;71086.03;5074877;28;20603;-76
2022/09/07 04:00:09;;;;;;;14.45;2.47;;;;;;;-145.69;100.00;71088.00;5075234;28;20289;-78
2022/09/07 04:02:35;;;;;;;11.93;3.28;;;;;;;-145.69;100.00;71060.16;5074883;28;20210;-77
2022/09/07 04:05:02;;;;;;;8.90;3.25;;;;;;;-145.69;100.00;71036.28;5075398;28;20199;-78
2022/09/07 04:07:28;;;;;;;5.40;2.63;;;;;;;-145.69;100.00;71010.41;5075296;28;20203;-78
2022/09/07 04:09:56;;;;;;;6.15;3.10;;;;;;;-145.69;100.00;71010.41;5074623;28;20226;-77
2022/09/07 04:12:24;;;;;;;6.35;2.47;;;;;;;-145.69;100.00;71020.34;5074921;28;20713;-76
2022/09/07 04:14:51;;;;;;;11.10;2.67;;;;;;;-145.69;100.00;71048.22;5075107;28;20207;-76
2022/09/07 04:17:17;;;;;;;12.85;2.83;;;;;;;-145.69;100.00;71068.13;5074963;28;20202;-77
2022/09/07 04:19:46;;;;;;;8.80;2.55;;;;;;;-145.69;100.00;71088.00;5074358;28;20202;-79
2022/09/07 04:22:16;;;;;;;11.32;2.75;;;;;;;-145.69;100.00;71103.94;5075109;28;20565;-78
2022/09/07 04:24:50;;;;;;;4.85;2.50;;;;;;;-145.69;100.00;71131.78;5074763;28;20205;-78
2022/09/07 04:27:18;;;;;;;14.77;2.90;;;;;;;-145.69;100.00;71123.81;5074944;28;20742;-77
2022/09/07 04:29:44;;;;;;;12.27;3.20;;;;;;;-145.69;100.00;71107.91;5074412;28;20796;-76
2022/09/07 04:32:11;;;;;;;12.30;3.60;;;;;;;-145.69;100.00;71103.94;5074479;28;20198;-76
2022/09/07 04:34:43;;;;;;;11.80;3.33;;;;;;;-145.69;100.00;71099.94;5075036;28;20618;-76
2022/09/07 04:37:11;;;;;;;7.28;2.85;;;;;;;-145.69;100.00;71103.94;5074271;28;20199;-77
2022/09/07 04:39:39;;;;;;;15.07;3.15;;;;;;;-145.69;100.00;71103.94;5074249;28;20195;-77
2022/09/07 04:42:07;;;;;;;11.65;2.80;;;;;;;-145.69;100.00;71099.94;5074878;28;20202;-76
2022/09/07 04:44:38;;;;;;;13.65;3.45;;;;;;;-145.69;100.00;71086.03;5073736;28;20434;-77
2022/09/07 04:47:12;;;;;;;13.07;3.42;;;;;;;-145.69;100.00;71078.06;5074452;28;20205;-75
2022/09/07 04:49:38;;;;;;;13.40;3.00;;;;;;;-145.69;100.00;71070.09;5073861;28;20772;-77
2022/09/07 04:52:06;;;;;;;8.05;2.88;;;;;;;-145.69;100.00;71068.13;5074078;28;20608;-76
2022/09/07 04:54:34;;;;;;;15.38;3.00;;;;;;;-145.69;100.00;71064.13;5074216;28;20249;-76
2022/09/07 04:57:01;;;;;;;8.65;3.13;;;;;;;-145.69;100.00;71050.22;5074336;28;20226;-76
2022/09/07 04:59:32;;;;;;;11.15;3.13;;;;;;;-145.69;100.00;71032.28;5074026;28;20230;-76
2022/09/07 05:02:06;;;;;;;8.13;2.88;;;;;;;-145.69;100.00;71024.34;5074181;28;20213;-76
2022/09/07 05:04:36;;;;;;;10.30;3.00;;;;;;;-145.69;100.00;71020.34;5073432;28;20194;-77
2022/09/07 05:07:15;;;;;;;11.20;2.70;;;;;;;-145.69;100.00;71016.38;5074007;28;20199;-78
2022/09/07 05:09:42;;;;;;;9.27;2.78;;;;;;;-145.69;100.00;71016.38;5073354;28;20225;-77
2022/09/07 05:12:09;;;;;;;11.85;2.80;;;;;;;-145.69;100.00;71004.44;5074033;28;20202;-77
2022/09/07 05:14:37;;;;;;;13.13;3.00;;;;;;;-145.69;100.00;70988.53;5073509;28;20199;-76
2022/09/07 05:17:06;;;;;;;9.20;3.13;;;;;;;-145.69;100.00;70966.63;5073826;28;20230;-76
2022/09/07 05:19:35;;;;;;;12.57;3.13;;;;;;;-145.69;100.00;70918.88;5073618;28;20199;-75
2022/09/07 05:22:03;;;;;;;9.40;2.60;;;;;;;-145.69;100.00;70904.97;5073867;28;20202;-76
2022/09/07 05:24:35;;;;;;;15.30;2.92;;;;;;;-145.69;100.00;70902.97;5073410;28;20645;-76
2022/09/07 05:27:02;;;;;;;11.77;2.90;;;;;;;-145.69;100.00;70889.03;5073442;28;20289;-75
2022/09/07 05:29:32;;;;;;;10.68;3.05;;;;;;;-145.69;100.00;70883.06;5072896;28;20221;-75
2022/09/07 05:31:58;;;;;;;6.15;2.78;;;;;;;-145.69;100.00;70865.16;5073765;28;20605;-77
2022/09/07 05:34:26;;;;;;;6.45;2.70;;;;;;;-145.69;100.00;70855.22;5073484;28;20207;-76
2022/09/07 05:37:06;;;;;;;8.82;2.60;;;;;;;-145.69;100.00;70839.31;5073227;28;20190;-77
2022/09/07 05:39:32;;;;;;;9.27;2.60;;;;;;;-145.69;100.00;70837.31;5072686;28;20570;-77
2022/09/07 05:42:01;;;;;;;8.27;2.92;;;;;;;-145.69;100.00;70835.31;5073458;28;20245;-77
2022/09/07 05:44:30;;;;;;;7.45;2.35;;;;;;;-145.69;100.00;70865.16;5073578;28;20294;-77
2022/09/07 05:46:57;;;;;;;6.95;2.40;;;;;;;-145.69;100.00;70881.09;5073508;28;20203;-76
2022/09/07 05:49:31;;;;;;;8.15;2.20;;;;;;;-145.69;100.00;70873.13;5072726;28;20226;-76
2022/09/07 05:51:59;;;;;;;10.98;2.70;;;;;;;-145.69;100.00;70865.16;5073284;28;20285;-76
2022/09/07 05:54:26;;;;;;;8.90;2.28;;;;;;;-145.69;100.00;70889.03;5072966;28;20198;-76
2022/09/07 05:56:54;;;;;;;5.45;2.30;;;;;;;-145.69;100.00;70904.97;5073293;28;20199;-76
2022/09/07 05:59:21;;;;;;;7.25;2.83;;;;;;;-145.69;100.00;70904.97;5073004;28;20195;-76
2022/09/07 06:01:54;;;;;;;9.88;2.72;;;;;;;-145.69;100.00;70916.91;5073128;28;20248;-76
2022/09/07 06:04:24;;;;;;;12.90;2.42;;;;;;;-145.69;100.00;70928.84;5073253;28;20198;-76
2022/09/07 06:06:52;;;;;;;8.82;2.28;;;;;;;-145.69;100.00;70932.81;5072659;28;20650;-76
2022/09/07 06:09:18;;;;;;;6.35;2.97;;;;;;;-145.69;100.00;70914.91;5072963;28;20285;-77
2022/09/07 06:11:45;;;;;;;7.35;2.80;;;;;;;-145.69;100.00;70906.94;5073432;28;20226;-77
2022/09/07 06:14:15;;;;;;;7.10;2.63;;;;;;;-145.69;100.00;70899.00;5072969;28;20687;-77
2022/09/07 06:16:43;;;;;;;13.10;3.13;;;;;;;-145.69;100.00;70883.06;5072651;28;20260;-76
2022/09/07 06:19:10;;;;;;;6.78;2.13;;;;;;;-145.69;100.00;70855.22;5071992;28;20194;-76
2022/09/07 06:21:39;;;;;;;8.50;2.80;;;;;;;-145.69;100.00;70853.22;5072438;28;20673;-77
2022/09/07 06:24:08;;;;;;;11.80;2.63;;;;;;;-145.69;100.00;70851.25;5073104;28;20221;-76
2022/09/07 06:26:34;;;;;;;8.05;3.22;;;;;;;-145.69;100.00;70853.22;5072960;28;20205;-76
2022/09/07 06:29:02;;;;;;;10.90;2.75;;;;;;;-145.69;100.00;70845.28;5072569;28;20191;-77
2022/09/07 06:31:28;;;;;;;4.82;2.33;;;;;;;-145.69;100.00;70837.31;5072570;28;20230;-76
2022/09/07 06:33:56;;;;;;;9.98;2.65;;;;;;;-145.69;100.00;70823.38;5072447;28;20202;-76
2022/09/07 06:36:26;;;;;;;8.18;2.92;;;;;;;-145.69;100.00;70807.47;5072603;28;20202;-76
2022/09/07 06:38:54;;;;;;;5.90;2.50;;;;;;;-145.69;100.00;70785.59;5072801;28;20203;-76
2022/09/07 06:41:23;;;;;;;10.85;2.65;;;;;;;-145.69;100.00;70757.72;5072823;28;20200;-79
2022/09/07 06:43:50;;;;;;;5.72;2.20;;;;;;;-145.69;100.00;70735.84;5072271;28;20198;-78
2022/09/07 06:46:17;;;;;;;9.98;2.40;;;;;;;-145.69;100.00;70719.94;5072412;28;20241;-77
2022/09/07 06:48:46;;;;;;;5.53;2.70;;;;;;;-145.69;100.00;70686.09;5072212;28;20293;-77
2022/09/07 06:51:17;;;;;;;6.30;2.15;;;;;;;-145.69;100.00;70662.22;5072189;28;20239;-77
2022/09/07 06:53:44;;;;;;;9.63;2.17;;;;;;;-145.69;100.00;70636.38;5072386;28;20203;-76
2022/09/07 06:56:15;;;;;;;5.20;2.25;;;;;;;-145.69;100.00;70604.53;5072082;28;20661;-76
2022/09/07 06:58:43;;;;;;;5.85;2.00;;;;;;;-145.69;100.00;70580.66;5072511;28;20658;-76
2022/09/07 07:01:13;;;;;;;4.78;1.83;;;;;;;-145.69;100.00;70558.78;5071758;28;20628;-77
2022/09/07 07:03:41;;;;;;;6.25;2.13;;;;;;;-145.69;100.00;70536.91;5072364;28;20198;-76
2022/09/07 07:06:08;;;;;;;6.45;2.13;;;;;;;-145.69;100.00;70526.94;5072348;28;20282;-76
2022/09/07 07:08:35;;;;;;;5.43;1.70;;;;;;;-145.69;100.00;70507.06;5072203;28;20223;-76
2022/09/07 07:11:03;;;;;;;9.07;1.95;;;;;;;-145.69;100.00;70495.13;5072069;28;20275;-76
2022/09/07 07:13:31;;;;;;;4.63;1.67;;;;;;;-145.69;100.00;70475.22;5072227;28;20206;-76
2022/09/07 07:16:06;;;;;;;5.63;1.77;;;;;;;-145.69;100.00;70473.22;5072198;28;20195;-77
2022/09/07 07:18:34;;;;;;;6.18;1.83;;;;;;;-145.69;100.00;70471.25;5072358;28;20287;-77
2022/09/07 07:21:02;;;;;;;7.20;1.85;;;;;;;-145.69;100.00;70471.25;5072044;28;20565;-77
2022/09/07 07:23:29;;;;;;;7.68;1.80;;;;;;;-145.69;100.00;70457.31;5072308;28;20582;-76
2022/09/07 07:25:56;;;;;;;6.22;2.00;;;;;;;-145.69;100.00;70445.38;5071930;28;20288;-75
2022/09/07 07:28:23;;;;;;;8.90;1.80;;;;;;;-145.69;100.00;70443.41;5072154;28;20596;-76
2022/09/07 07:30:54;;;;;;;11.77;2.25;;;;;;;-145.69;100.00;70451.34;5072908;28;20235;-78
2022/09/07 07:33:22;;;;;;;8.48;2.03;;;;;;;-145.69;100.00;70449.38;5075960;28;20203;-77
2022/09/07 07:35:49;;;;;;;9.13;2.00;;;;;;;-145.69;100.00;70423.50;5075761;28;20195;-76
2022/09/07 07:38:15;;;;;;;9.98;1.92;;;;;;;-145.69;100.00;70419.53;5075765;28;20213;-77
2022/09/07 07:40:42;;;;;;;12.57;2.40;;;;;;;-145.69;100.00;70407.59;5075540;28;20256;-77
2022/09/07 07:43:08;;;;;;;4.93;1.63;;;;;;;-145.69;99.13;70413.56;5063934;28;20294;-76
2022/09/07 07:45:35;;;;;;;6.45;1.67;;;;;;;-145.69;100.00;70401.63;5057849;28;20199;-77
2022/09/07 07:48:01;;;;;;;10.45;2.33;;;;;;;-145.69;99.69;70375.75;5075890;28;20666;-76
2022/09/07 07:50:29;;;;;;;6.45;2.05;;;;;;;-145.69;100.00;70363.81;5075220;28;20231;-76
2022/09/07 07:52:56;;;;;;;7.97;1.90;;;;;;;-145.69;98.76;70353.88;5075221;28;20668;-76
2022/09/07 07:55:23;;;;;;;6.65;2.47;;;;;;;-145.69;100.00;70335.97;5074540;28;20657;-76
2022/09/07 07:57:49;;;;;;;9.25;2.15;;;;;;;-145.69;97.39;70320.06;5075260;28;20198;-76
2022/09/07 08:00:16;;;;;;;6.65;1.77;;;;;;;-145.69;99.02;70312.09;5075489;28;20206;-76
2022/09/07 08:02:43;;;;;;;6.28;2.40;;;;;;;-145.69;97.46;70298.16;5075415;28;20199;-76
2022/09/07 08:05:09;;;;;;;9.32;2.28;;;;;;;-145.69;96.96;70290.22;5074686;28;20199;-76
2022/09/07 08:07:37;;;;;;;7.50;1.90;;;;;;;-145.69;97.99;70286.25;5075156;28;20565;-75
2022/09/07 08:10:06;;;;;;;8.07;2.38;;;;;;;-145.69;94.50;70272.31;5075309;28;20229;-76
2022/09/07 08:12:33;;;;;;;3.85;1.60;;;;;;;-145.69;90.96;70308.13;5075124;28;20233;-78
2022/09/07 08:14:59;;;;;;;9.05;2.03;;;;;;;-145.69;93.94;70294.19;5074889;28;20191;-75
2022/09/07 08:17:25;;;;;;;7.00;2.22;;;;;;;-145.69;87.66;70280.28;5075060;28;20225;-77
2022/09/07 08:19:54;;;;;;;9.35;1.90;;;;;;;-145.69;88.81;70244.47;5074940;28;20198;-76
2022/09/07 08:22:20;;;;;;;5.78;1.70;;;;;;;-145.69;85.78;70276.28;5074911;28;20576;-77
2022/09/07 08:24:48;;;;;;;8.05;1.65;;;;;;;-145.69;88.24;70278.28;5074304;28;20557;-78
2022/09/07 08:27:18;;;;;;;9.82;1.60;;;;;;;-145.69;87.82;70248.44;5074873;28;20290;-76
2022/09/07 08:29:44;;;;;;;4.82;1.35;;;;;;;-145.69;84.76;70236.50;5074639;28;20199;-76
2022/09/07 08:32:11;;;;;;;9.07;1.67;;;;;;;-145.69;83.52;70220.59;5074754;28;20287;-77
2022/09/07 08:34:37;;;;;;;6.60;1.60;;;;;;;-145.69;81.84;70180.81;5074417;28;20634;-76
2022/09/07 08:37:04;;;;;;;6.60;1.40;;;;;;;-145.69;78.82;70192.75;5060739;28;20211;-76
2022/09/07 08:39:30;;;;;;;9.02;1.90;;;;;;;-145.69;80.12;70244.47;5065335;28;20199;-76
2022/09/07 08:42:31;;;;;;;5.43;1.50;;;;;;;-145.69;84.90;70278.28;5074699;28;20209;-76
2022/09/07 08:45:04;;;;;;;10.45;1.80;;;;;;;-145.69;83.20;70220.59;5070553;28;20203;-75
2022/09/07 08:47:38;;;;;;;7.13;1.80;;;;;;;-145.69;88.09;70190.75;5074417;28;20241;-75
2022/09/07 08:50:11;;;;;;;11.48;1.70;;;;;;;-145.69;79.07;70210.66;5074327;28;20231;-76
2022/09/07 08:52:46;;;;;;;9.75;1.75;;;;;;;-145.69;83.93;70188.75;5074409;28;20292;-77
2022/09/07 08:55:18;;;;;;;8.27;1.80;;;;;;;-145.69;78.50;70192.75;5074077;28;20285;-78
2022/09/07 08:57:52;;;;;;;6.75;1.80;;;;;;;-145.69;78.45;70196.72;5073892;28;20195;-75
2022/09/07 09:00:19;;;;;;;10.02;1.75;;;;;;;-145.69;78.69;70224.56;5074294;28;20293;-78
2022/09/07 09:02:46;;;;;;;6.88;1.92;;;;;;;-145.69;80.97;70232.53;5074237;28;20547;-76
2022/09/07 09:05:31;;;;;;;4.88;1.35;;;;;;;-145.69;79.01;70268.34;5073972;28;20290;-77
2022/09/07 09:08:10;;;;;;;6.47;1.52;;;;;;;-145.69;81.89;70264.34;5073197;28;20499;-77
2022/09/07 09:10:48;;;;;;;6.68;1.85;;;;;;;-145.69;81.35;70270.31;5073597;28;20650;-80
2022/09/07 09:13:19;;;;;;;5.43;1.60;;;;;;;-145.69;82.28;70290.22;5074272;28;20203;-80
2022/09/07 09:15:52;;;;;;;5.28;1.55;;;;;;;-145.69;83.21;70312.09;5073670;28;20226;-76
2022/09/07 09:18:30;;;;;;;5.18;1.73;;;;;;;-145.69;84.05;70332.00;5073924;28;20199;-77
2022/09/07 09:20:58;;;;;;;10.85;1.80;;;;;;;-145.69;85.51;70353.88;5073755;28;20206;-78
2022/09/07 09:23:26;;;;;;;10.60;1.83;;;;;;;-145.69;85.20;70335.97;5073699;28;20214;-77
2022/09/07 09:25:54;;;;;;;3.17;1.83;;;;;;;-145.69;85.84;70312.09;5056201;28;20257;-77
2022/09/07 09:28:23;;;;;;;5.57;1.85;;;;;;;-145.69;84.24;70282.25;5053679;28;20207;-77
2022/09/07 09:30:50;;;;;;;5.07;1.40;;;;;;;-145.69;81.40;70260.38;5067344;28;20244;-76
2022/09/07 09:33:19;;;;;;;6.13;1.58;;;;;;;-145.69;81.09;70224.56;5073537;28;20198;-77
2022/09/07 09:35:48;;;;;;;5.25;1.58;;;;;;;-145.69;81.91;70182.78;5071830;28;20601;-80
2022/09/07 09:38:32;;;;;;;5.88;1.60;;;;;;;-145.69;74.81;70150.97;5073330;28;20657;-76
2022/09/07 09:41:03;;;;;;;6.63;1.88;;;;;;;-145.69;79.70;70129.09;5073215;28;20657;-79
2022/09/07 09:43:36;;;;;;;4.43;1.40;;;;;;;-145.69;76.12;70129.09;5073554;28;20549;-79
2022/09/07 09:46:03;;;;;;;6.15;1.80;;;;;;;-145.69;78.02;70150.97;5072142;28;20450;-79
2022/09/07 09:48:33;;;;;;;6.03;1.70;;;;;;;-145.69;75.65;70117.16;5073392;28;20260;-82
2022/09/07 09:51:01;;;;;;;4.40;1.55;;;;;;;-145.69;77.37;70077.38;5062725;28;20231;-81
2022/09/07 09:53:32;;;;;;;4.03;1.60;;;;;;;-145.69;75.27;70063.44;5053149;28;20203;-79
2022/09/07 09:56:00;;;;;;;4.25;1.20;;;;;;;-145.69;78.04;70049.50;5053041;28;20298;-80
2022/09/07 09:58:30;;;;;;;6.82;1.35;;;;;;;-145.69;72.39;70041.56;5053286;28;20225;-80
2022/09/07 10:01:01;;;;;;;3.83;1.13;;;;;;;-145.69;71.00;70061.44;5058136;28;20191;-79
2022/09/07 10:03:29;;;;;;;2.55;1.10;;;;;;;-145.69;73.87;70085.31;5072900;28;20195;-78
2022/09/07 10:05:56;;;;;;;5.43;1.60;;;;;;;-145.69;67.68;70141.03;5073201;28;20708;-80
2022/09/07 10:08:25;;;;;;;5.07;1.23;;;;;;;-145.69;71.01;70133.06;5072625;28;20191;-79
2022/09/07 10:10:54;;;;;;;2.95;1.48;;;;;;;-145.69;69.90;70148.97;5072636;28;20218;-80
2022/09/07 10:13:22;;;;;;;5.40;1.45;;;;;;;-145.69;72.02;70137.03;5073216;28;20202;-80
2022/09/07 10:15:56;;;;;;;4.65;1.30;;;;;;;-145.69;68.33;70148.97;5073079;28;20203;-80
2022/09/07 10:18:31;;;;;;;5.30;1.38;;;;;;;-145.69;63.32;70129.09;5072814;28;20611;-79
2022/09/07 10:21:23;;;;;;;2.42;0.93;;;;;;;-145.69;61.84;70093.28;5072549;28;20282;-79
2022/09/07 10:23:54;;;;;;;5.15;1.27;;;;;;;-145.69;58.98;70105.22;5068844;28;20778;-79
2022/09/07 10:26:30;;;;;;;6.57;1.17;;;;;;;-145.69;61.21;70123.13;5072851;28;20229;-78
2022/09/07 10:29:11;;;;;;;4.30;1.27;;;;;;;-145.69;59.99;70117.16;5072842;28;20198;-78
2022/09/07 10:31:48;;;;;;;2.63;0.95;;;;;;;-145.69;51.92;70123.13;5052404;28;20239;-79
2022/09/07 10:34:24;;;;;;;4.93;0.80;;;;;;;-145.69;53.88;70139.03;5052764;28;20231;-79
2022/09/07 10:36:58;;;;;;;4.75;0.93;;;;;;;-145.69;58.91;70113.16;5052692;28;20202;-79
2022/09/07 10:39:28;;;;;;;4.90;1.10;;;;;;;-145.69;58.05;70091.28;5054790;28;20203;-78
2022/09/07 10:42:07;;;;;;;4.45;1.20;;;;;;;-145.69;58.12;70073.38;5072699;28;20206;-79
2022/09/07 10:44:46;;;;;;;3.63;1.40;;;;;;;-145.69;60.20;70033.59;5072848;28;20201;-79
2022/09/07 10:47:24;;;;;;;3.33;0.93;;;;;;;-145.69;54.66;69958.00;5072853;28;20194;-79
2022/09/07 10:49:56;;;;;;;5.07;1.17;;;;;;;-145.69;55.10;69971.94;5072289;28;20229;-78
2022/09/07 10:52:32;;;;;;;3.42;1.10;;;;;;;-145.69;56.30;69971.94;5072230;28;20226;-78
2022/09/07 10:55:08;;;;;;;3.03;1.17;;;;;;;-145.69;51.12;69993.81;5072636;28;20209;-79
2022/09/07 10:57:50;;;;;;;4.38;1.70;;;;;;;-145.69;51.77;70031.63;5072779;28;20199;-79
2022/09/07 11:00:19;;;;;;;7.28;2.40;;;;;;;-145.69;52.04;70045.53;5072288;28;20195;-78
2022/09/07 11:02:59;;;;;;;10.00;1.70;;;;;;;-145.69;55.79;70017.69;5072370;28;20199;-78
2022/09/07 11:05:34;;;;;;;3.72;1.20;;;;;;;-145.69;51.96;70013.72;5072489;28;20209;-80
2022/09/07 11:08:17;;;;;;;2.35;1.17;;;;;;;-145.69;62.56;69981.88;5076619;28;20204;-78
2022/09/07 11:10:53;;;;;;;4.38;1.40;;;;;;;-145.69;57.52;69954.03;5067988;28;20199;-79
2022/09/07 11:13:25;;;;;;;2.72;1.33;;;;;;;-145.69;61.74;69962.00;5076212;28;20230;-79
2022/09/07 11:15:56;;;;;;;4.35;1.00;;;;;;;-145.69;57.75;69962.00;5076316;28;20206;-78
2022/09/07 11:18:27;;;;;;;3.85;1.15;;;;;;;-145.69;60.54;69954.03;5075869;28;20210;-78
2022/09/07 11:20:59;;;;;;;3.55;1.40;;;;;;;-145.69;59.04;69938.13;5075807;28;20199;-78
2022/09/07 11:23:33;;;;;;;3.47;1.00;;;;;;;-145.69;59.70;69942.09;5075877;28;20245;-78